createdAt,value
2019-05-28T00:00:02.736Z,0.90
2019-05-28T00:02:28.052Z,1.13
2019-05-28T00:04:54.675Z,0.90
2019-05-28T00:07:20.825Z,0.70
2019-05-28T00:09:46.933Z,0.73
2019-05-28T00:12:13.394Z,0.80
2019-05-28T00:14:39.559Z,0.77
2019-05-28T00:17:05.968Z,0.90
2019-05-28T00:19:32.212Z,1.03
2019-05-28T00:21:58.355Z,1.10
2019-05-28T00:24:25.015Z,0.77
2019-05-28T00:26:51.217Z,1.00
2019-05-28T00:29:17.382Z,1.00
2019-05-28T00:31:43.539Z,1.17
2019-05-28T00:34:09.940Z,0.90
2019-05-28T00:36:36.046Z,0.90
2019-05-28T00:39:04.698Z,1.00
2019-05-28T00:41:31.100Z,0.87
2019-05-28T00:43:57.519Z,1.10
2019-05-28T00:46:23.658Z,1.00
2019-05-28T00:48:50.019Z,1.00
2019-05-28T00:51:16.249Z,0.83
2019-05-28T00:53:42.633Z,0.90
2019-05-28T00:56:09.774Z,0.80
2019-05-28T00:58:36.219Z,1.10
2019-05-28T01:01:02.710Z,1.00
2019-05-28T01:03:29.179Z,0.80
2019-05-28T01:05:55.325Z,0.70
2019-05-28T01:08:21.592Z,0.70
2019-05-28T01:10:48.050Z,1.00
2019-05-28T01:13:15.760Z,1.00
2019-05-28T01:15:42.194Z,0.87
2019-05-28T01:18:08.542Z,1.00
2019-05-28T01:20:34.807Z,1.10
2019-05-28T01:23:01.240Z,0.83
2019-05-28T01:25:27.596Z,0.93
2019-05-28T01:27:53.801Z,0.90
2019-05-28T01:30:20.937Z,1.20
2019-05-28T01:32:47.068Z,1.00
2019-05-28T01:35:13.427Z,1.20
2019-05-28T01:37:39.703Z,1.20
2019-05-28T01:40:06.435Z,1.40
2019-05-28T01:42:32.585Z,1.20
2019-05-28T01:44:58.968Z,1.20
2019-05-28T01:47:25.240Z,1.60
2019-05-28T01:49:51.470Z,0.97
2019-05-28T01:52:17.729Z,1.20
2019-05-28T01:54:44.098Z,1.47
2019-05-28T01:57:10.325Z,1.13
2019-05-28T01:59:36.584Z,0.83
2019-05-28T02:02:03.192Z,1.17
2019-05-28T02:04:29.523Z,1.13
2019-05-28T02:06:55.669Z,1.03
2019-05-28T02:09:21.775Z,1.10
2019-05-28T02:11:48.044Z,1.20
2019-05-28T02:14:14.179Z,1.20
2019-05-28T02:16:40.584Z,1.13
2019-05-28T02:19:06.807Z,1.30
2019-05-28T02:21:32.949Z,1.20
2019-05-28T02:23:59.046Z,1.17
2019-05-28T02:26:25.322Z,1.40
2019-05-28T02:28:51.984Z,1.30
2019-05-28T02:31:27.255Z,1.23
2019-05-28T02:33:46.160Z,1.43
2019-05-28T02:36:12.547Z,1.47
2019-05-28T02:38:38.824Z,1.40
2019-05-28T02:41:05.157Z,1.70
2019-05-28T02:43:31.516Z,1.07
2019-05-28T02:45:57.661Z,1.50
2019-05-28T02:48:24.011Z,1.90
2019-05-28T02:50:57.929Z,2.13
2019-05-28T02:53:24.265Z,2.53
2019-05-28T02:55:51.419Z,2.70
2019-05-28T02:58:18.964Z,3.33
2019-05-28T03:00:46.985Z,3.00
2019-05-28T03:03:14.438Z,2.97
2019-05-28T03:05:42.741Z,2.60
2019-05-28T03:08:10.523Z,2.70
2019-05-28T03:11:01.809Z,2.67
2019-05-28T03:13:05.902Z,2.33
2019-05-28T03:15:35.242Z,2.27
2019-05-28T03:18:02.402Z,2.50
2019-05-28T03:20:30.360Z,3.30
2019-05-28T03:22:56.917Z,2.70
2019-05-28T03:25:23.177Z,3.00
2019-05-28T03:27:49.706Z,2.93
2019-05-28T03:30:16.273Z,2.40
2019-05-28T03:32:42.705Z,2.57
2019-05-28T03:35:09.176Z,2.40
2019-05-28T03:37:36.228Z,2.40
2019-05-28T03:40:09.121Z,2.80
2019-05-28T03:42:35.544Z,2.70
2019-05-28T03:45:04.182Z,2.30
2019-05-28T03:47:30.340Z,2.67
2019-05-28T03:49:56.634Z,2.80
2019-05-28T03:52:22.893Z,2.63
2019-05-28T03:54:49.334Z,2.63
2019-05-28T03:57:15.587Z,2.87
2019-05-28T03:59:42.009Z,2.37
2019-05-28T04:02:22.444Z,2.73
2019-05-28T04:04:36.292Z,2.40
2019-05-28T04:07:02.911Z,2.60
2019-05-28T04:09:33.837Z,2.73
2019-05-28T04:11:59.549Z,2.40
2019-05-28T04:14:25.864Z,2.77
2019-05-28T04:16:51.986Z,2.83
2019-05-28T04:19:18.254Z,3.10
2019-05-28T04:21:44.393Z,3.30
2019-05-28T04:24:10.537Z,2.73
2019-05-28T04:26:36.705Z,3.20
2019-05-28T04:29:04.104Z,3.50
2019-05-28T04:31:30.260Z,3.00
2019-05-28T04:33:58.385Z,2.90
2019-05-28T04:36:24.578Z,2.10
2019-05-28T04:38:50.806Z,1.87
2019-05-28T04:41:17.094Z,2.60
2019-05-28T04:43:43.317Z,2.80
2019-05-28T04:46:09.825Z,2.30
2019-05-28T04:48:36.062Z,1.90
2019-05-28T04:51:02.460Z,1.77
2019-05-28T04:53:28.580Z,1.70
2019-05-28T04:55:54.727Z,1.50
2019-05-28T04:58:21.163Z,1.40
2019-05-28T05:00:47.416Z,1.30
2019-05-28T05:03:14.087Z,1.37
2019-05-28T05:05:40.326Z,1.07
2019-05-28T05:08:06.640Z,1.20
2019-05-28T05:10:32.840Z,1.00
2019-05-28T05:12:59.012Z,0.90
2019-05-28T05:15:25.383Z,1.10
2019-05-28T05:17:51.529Z,1.27
2019-05-28T05:20:17.898Z,1.07
2019-05-28T05:22:44.036Z,0.93
2019-05-28T05:25:12.561Z,0.73
2019-05-28T05:27:38.721Z,1.03
2019-05-28T05:30:05.881Z,0.80
2019-05-28T05:32:33.665Z,1.00
2019-05-28T05:34:59.958Z,1.00
2019-05-28T05:37:26.398Z,0.80
2019-05-28T05:39:52.627Z,1.07
2019-05-28T05:42:18.994Z,0.80
2019-05-28T05:44:45.237Z,1.03
2019-05-28T05:47:11.692Z,0.73
2019-05-28T05:49:37.974Z,0.67
2019-05-28T05:52:04.770Z,0.80
2019-05-28T05:54:30.917Z,1.03
2019-05-28T05:56:57.028Z,0.93
2019-05-28T05:59:23.583Z,1.33
2019-05-28T06:01:50.241Z,0.80
2019-05-28T06:04:17.271Z,0.73
2019-05-28T06:06:43.684Z,0.53
2019-05-28T06:09:10.084Z,1.07
2019-05-28T06:11:36.205Z,1.20
2019-05-28T06:14:02.900Z,1.40
2019-05-28T06:16:29.458Z,1.80
2019-05-28T06:18:56.095Z,2.40
2019-05-28T06:21:22.300Z,1.90
2019-05-28T06:23:48.546Z,1.97
2019-05-28T06:26:14.733Z,1.37
2019-05-28T06:28:41.094Z,1.03
2019-05-28T06:31:07.223Z,1.20
2019-05-28T06:33:33.392Z,1.53
2019-05-28T06:36:01.516Z,4.40
2019-05-28T06:38:29.501Z,3.50
2019-05-28T06:40:56.054Z,2.93
2019-05-28T06:43:22.563Z,1.93
2019-05-28T06:45:48.996Z,2.70
2019-05-28T06:48:15.170Z,3.43
2019-05-28T06:50:44.337Z,2.60
2019-05-28T06:53:11.007Z,2.10
2019-05-28T06:55:37.206Z,1.43
2019-05-28T06:58:03.642Z,1.77
2019-05-28T07:00:30.106Z,1.87
2019-05-28T07:02:56.355Z,1.77
2019-05-28T07:05:22.589Z,1.40
2019-05-28T07:07:48.912Z,1.50
2019-05-28T07:10:17.303Z,1.10
2019-05-28T07:12:43.551Z,1.07
2019-05-28T07:15:13.273Z,1.50
2019-05-28T07:17:39.912Z,1.10
2019-05-28T07:20:08.080Z,0.80
2019-05-28T07:22:34.413Z,1.20
2019-05-28T07:25:00.655Z,0.80
2019-05-28T07:27:26.789Z,1.20
2019-05-28T07:29:53.207Z,1.20
2019-05-28T07:32:19.455Z,1.20
2019-05-28T07:34:45.572Z,1.10
2019-05-28T07:37:11.948Z,1.60
2019-05-28T07:39:38.130Z,1.40
2019-05-28T07:42:04.611Z,1.90
2019-05-28T07:44:30.835Z,1.90
2019-05-28T07:46:57.200Z,1.87
2019-05-28T07:49:23.484Z,2.00
2019-05-28T07:51:49.800Z,1.97
2019-05-28T07:54:15.917Z,1.90
2019-05-28T07:56:42.083Z,2.10
2019-05-28T07:59:08.471Z,1.97
2019-05-28T08:01:34.723Z,1.70
2019-05-28T08:04:00.977Z,2.13
2019-05-28T08:06:27.447Z,2.30
2019-05-28T08:08:53.784Z,2.10
2019-05-28T08:11:20.051Z,1.47
2019-05-28T08:13:46.384Z,1.70
2019-05-28T08:16:18.657Z,1.90
2019-05-28T08:18:40.902Z,1.60
2019-05-28T08:21:07.074Z,1.73
2019-05-28T08:23:33.200Z,2.63
2019-05-28T08:26:01.827Z,2.63
2019-05-28T08:28:27.768Z,2.13
2019-05-28T08:30:54.074Z,2.37
2019-05-28T08:33:20.235Z,2.07
2019-05-28T08:35:46.457Z,2.30
2019-05-28T08:38:12.753Z,1.90
2019-05-28T08:40:39.072Z,1.90
2019-05-28T08:43:05.350Z,2.37
2019-05-28T08:45:31.611Z,2.23
2019-05-28T08:47:57.928Z,2.37
2019-05-28T08:50:33.875Z,2.03
2019-05-28T08:52:52.480Z,1.60
2019-05-28T08:55:18.830Z,2.00
2019-05-28T08:57:45.298Z,1.97
2019-05-28T09:00:13.880Z,2.07
2019-05-28T09:02:40.233Z,1.60
2019-05-28T09:05:24.724Z,1.57
2019-05-28T09:07:35.242Z,1.23
2019-05-28T09:10:04.096Z,1.47
2019-05-28T09:12:30.480Z,1.00
2019-05-28T09:14:56.947Z,1.07
2019-05-28T09:17:23.525Z,1.00
2019-05-28T09:19:49.702Z,0.90
2019-05-28T09:22:25.932Z,0.90
2019-05-28T09:24:44.232Z,0.83
2019-05-28T09:27:10.580Z,0.60
2019-05-28T09:29:36.894Z,0.50
2019-05-28T09:32:03.650Z,0.80
2019-05-28T09:34:30.108Z,0.80
2019-05-28T09:36:57.867Z,0.67
2019-05-28T09:39:24.060Z,0.60
2019-05-28T09:41:50.402Z,0.70
2019-05-28T09:44:16.831Z,0.73
2019-05-28T09:46:43.118Z,0.70
2019-05-28T09:49:09.567Z,0.77
2019-05-28T09:51:35.849Z,0.60
2019-05-28T09:54:03.393Z,0.50
2019-05-28T09:56:32.725Z,0.70
2019-05-28T09:58:57.976Z,0.60
2019-05-28T10:01:24.581Z,0.50
2019-05-28T10:03:50.887Z,0.70
2019-05-28T10:06:18.287Z,0.80
2019-05-28T10:08:44.621Z,0.43
2019-05-28T10:11:11.491Z,0.60
2019-05-28T10:13:40.861Z,0.50
2019-05-28T10:16:05.937Z,0.67
2019-05-28T10:18:32.768Z,0.77
2019-05-28T10:21:14.617Z,0.60
2019-05-28T10:23:27.431Z,0.70
2019-05-28T10:25:54.140Z,0.70
2019-05-28T10:28:20.283Z,0.30
2019-05-28T10:30:47.385Z,0.40
2019-05-28T10:33:13.542Z,0.50
2019-05-28T10:35:40.060Z,0.60
2019-05-28T10:38:06.198Z,0.60
2019-05-28T10:40:32.619Z,0.60
2019-05-28T10:42:58.821Z,0.47
2019-05-28T10:45:25.541Z,0.43
2019-05-28T10:47:51.805Z,0.50
2019-05-28T10:50:19.280Z,0.43
2019-05-28T10:52:45.513Z,0.60
2019-05-28T10:55:15.799Z,0.57
2019-05-28T10:57:40.889Z,0.57
2019-05-28T11:00:08.039Z,0.40
2019-05-28T11:02:34.440Z,0.33
2019-05-28T11:05:01.095Z,0.30
2019-05-28T11:07:27.457Z,0.40
2019-05-28T11:09:53.585Z,0.53
2019-05-28T11:12:19.888Z,0.60
2019-05-28T11:14:46.516Z,0.50
2019-05-28T11:17:12.805Z,0.53
2019-05-28T11:19:38.912Z,0.40
2019-05-28T11:22:05.292Z,0.60
2019-05-28T11:24:31.512Z,0.67
2019-05-28T11:26:58.058Z,0.50
2019-05-28T11:29:24.185Z,0.30
2019-05-28T11:31:50.748Z,0.40
2019-05-28T11:34:16.985Z,0.47
2019-05-28T11:36:43.114Z,0.50
2019-05-28T11:39:09.866Z,0.40
2019-05-28T11:41:42.139Z,0.70
2019-05-28T11:44:04.790Z,0.50
2019-05-28T11:46:30.907Z,0.30
2019-05-28T11:48:57.328Z,12.97
2019-05-28T11:51:23.668Z,4.23
2019-05-28T11:53:50.103Z,1.27
2019-05-28T11:56:16.224Z,0.70
2019-05-28T11:58:42.471Z,0.70
2019-05-28T12:01:08.592Z,0.47
2019-05-28T12:03:35.017Z,8.20
2019-05-28T12:06:01.524Z,9.80
2019-05-28T12:08:28.144Z,10.77
2019-05-28T12:10:54.369Z,4.63
2019-05-28T12:13:20.648Z,3.00
2019-05-28T12:15:46.999Z,2.50
2019-05-28T12:18:13.284Z,1.33
2019-05-28T12:20:39.557Z,0.97
2019-05-28T12:23:11.623Z,0.80
2019-05-28T12:25:34.696Z,0.57
2019-05-28T12:28:00.827Z,0.67
2019-05-28T12:30:28.781Z,0.63
2019-05-28T12:32:55.458Z,0.70
2019-05-28T12:35:29.086Z,0.60
2019-05-28T12:37:50.860Z,0.63
2019-05-28T12:40:18.176Z,0.70
2019-05-28T12:42:44.589Z,0.90
2019-05-28T12:45:12.583Z,0.70
2019-05-28T12:47:39.259Z,0.50
2019-05-28T12:50:19.182Z,0.60
2019-05-28T12:52:35.080Z,0.67
2019-05-28T12:55:01.363Z,1.00
2019-05-28T12:57:27.474Z,0.80
2019-05-28T12:59:53.741Z,0.83
2019-05-28T13:02:19.857Z,0.60
2019-05-28T13:04:46.183Z,0.53
2019-05-28T13:07:12.464Z,0.47
2019-05-28T13:09:38.857Z,0.50
2019-05-28T13:12:05.090Z,0.50
2019-05-28T13:14:31.462Z,0.70
2019-05-28T13:16:57.584Z,0.65
2019-05-28T13:19:23.697Z,0.72
2019-05-28T13:21:49.879Z,0.60
2019-05-28T13:24:16.177Z,0.90
2019-05-28T13:26:42.749Z,0.50
2019-05-28T13:29:09.396Z,0.78
2019-05-28T13:31:35.855Z,0.80
2019-05-28T13:34:02.278Z,0.60
2019-05-28T13:36:28.548Z,0.60
2019-05-28T13:38:54.748Z,0.50
2019-05-28T13:41:21.396Z,0.43
2019-05-28T13:43:47.662Z,0.50
2019-05-28T13:46:14.098Z,0.45
2019-05-28T13:48:40.485Z,0.62
2019-05-28T13:51:07.007Z,0.53
2019-05-28T13:53:33.145Z,0.70
2019-05-28T13:55:59.646Z,0.70
2019-05-28T13:58:25.978Z,0.70
2019-05-28T14:00:52.643Z,0.72
2019-05-28T14:03:19.252Z,0.60
2019-05-28T14:05:45.623Z,0.68
2019-05-28T14:08:11.790Z,0.60
2019-05-28T14:10:39.090Z,0.70
2019-05-28T14:13:05.366Z,0.60
2019-05-28T14:15:31.950Z,0.83
2019-05-28T14:17:58.355Z,0.70
2019-05-28T14:20:24.689Z,0.40
2019-05-28T14:22:51.185Z,0.70
2019-05-28T14:25:17.707Z,0.43
2019-05-28T14:27:44.111Z,0.70
2019-05-28T14:30:13.010Z,0.50
2019-05-28T14:32:39.198Z,0.70
2019-05-28T14:35:05.833Z,0.40
2019-05-28T14:37:32.298Z,0.50
2019-05-28T14:39:58.531Z,0.40
2019-05-28T14:42:24.812Z,0.40
2019-05-28T14:44:51.267Z,0.30
2019-05-28T14:47:17.477Z,0.40
2019-05-28T14:49:43.588Z,0.27
2019-05-28T14:52:09.753Z,0.27
2019-05-28T14:54:35.940Z,0.30
2019-05-28T14:57:02.531Z,0.40
2019-05-28T14:59:28.857Z,0.60
2019-05-28T15:01:55.060Z,0.40
2019-05-28T15:04:21.393Z,0.67
2019-05-28T15:06:47.714Z,0.50
2019-05-28T15:09:20.711Z,0.57
2019-05-28T15:11:42.086Z,0.37
2019-05-28T15:14:08.252Z,0.40
2019-05-28T15:16:34.611Z,1.27
2019-05-28T15:19:00.903Z,0.90
2019-05-28T15:21:27.023Z,0.50
2019-05-28T15:23:53.180Z,0.37
2019-05-28T15:26:19.434Z,0.60
2019-05-28T15:28:45.789Z,0.63
2019-05-28T15:31:12.049Z,0.40
2019-05-28T15:33:38.192Z,0.60
2019-05-28T15:36:04.596Z,0.40
2019-05-28T15:38:31.160Z,0.53
2019-05-28T15:40:57.451Z,0.60
2019-05-28T15:43:23.616Z,0.33
2019-05-28T15:45:49.868Z,1.03
2019-05-28T15:48:16.072Z,0.60
2019-05-28T15:50:42.439Z,0.50
2019-05-28T15:53:08.764Z,0.97
2019-05-28T15:55:35.222Z,0.70
2019-05-28T15:58:01.594Z,0.60
2019-05-28T16:00:27.855Z,0.60
2019-05-28T16:02:54.409Z,0.60
2019-05-28T16:05:20.799Z,0.60
2019-05-28T16:07:47.222Z,0.80
2019-05-28T16:10:14.085Z,3.50
2019-05-28T16:12:40.455Z,7.20
2019-05-28T16:15:07.391Z,4.73
2019-05-28T16:17:33.629Z,5.00
2019-05-28T16:19:59.816Z,3.53
2019-05-28T16:22:26.001Z,2.10
2019-05-28T16:24:52.549Z,2.47
2019-05-28T16:27:19.046Z,1.70
2019-05-28T16:29:45.190Z,1.60
2019-05-28T16:32:11.562Z,1.30
2019-05-28T16:34:38.104Z,1.07
2019-05-28T16:37:04.458Z,1.30
2019-05-28T16:39:30.695Z,0.97
2019-05-28T16:41:57.132Z,0.80
2019-05-28T16:44:23.378Z,2.10
2019-05-28T16:47:14.071Z,1.50
2019-05-28T16:49:17.931Z,4.10
2019-05-28T16:51:44.488Z,3.30
2019-05-28T16:54:19.131Z,2.73
2019-05-28T16:56:38.767Z,1.80
2019-05-28T16:59:05.857Z,1.70
2019-05-28T17:01:33.238Z,0.80
2019-05-28T17:04:01.927Z,1.00
2019-05-28T17:06:31.550Z,0.90
2019-05-28T17:08:57.753Z,0.73
2019-05-28T17:11:27.714Z,1.00
2019-05-28T17:13:52.318Z,0.80
2019-05-28T17:16:18.648Z,0.60
2019-05-28T17:18:45.190Z,0.90
2019-05-28T17:21:11.707Z,0.73
2019-05-28T17:23:38.038Z,0.60
2019-05-28T17:26:04.403Z,0.77
2019-05-28T17:28:30.690Z,1.93
2019-05-28T17:30:56.972Z,2.70
2019-05-28T17:33:23.270Z,4.33
2019-05-28T17:35:50.728Z,2.70
2019-05-28T17:38:17.246Z,1.50
2019-05-28T17:40:48.414Z,1.10
2019-05-28T17:43:11.739Z,2.33
2019-05-28T17:45:38.114Z,3.50
2019-05-28T17:48:04.909Z,2.43
2019-05-28T17:50:31.438Z,2.43
2019-05-28T17:52:57.602Z,1.40
2019-05-28T17:55:23.938Z,1.10
2019-05-28T17:57:50.358Z,0.90
2019-05-28T18:00:16.585Z,0.80
2019-05-28T18:02:42.720Z,0.90
2019-05-28T18:05:10.239Z,0.60
2019-05-28T18:07:36.465Z,0.60
2019-05-28T18:10:05.358Z,0.53
2019-05-28T18:12:31.748Z,0.60
2019-05-28T18:14:58.047Z,0.40
2019-05-28T18:17:24.492Z,0.57
2019-05-28T18:19:50.725Z,0.53
2019-05-28T18:22:17.017Z,0.50
2019-05-28T18:24:43.173Z,0.37
2019-05-28T18:27:09.528Z,0.50
2019-05-28T18:29:35.705Z,0.50
2019-05-28T18:32:02.134Z,0.50
2019-05-28T18:34:28.291Z,0.27
2019-05-28T18:36:54.671Z,0.27
2019-05-28T18:39:25.160Z,0.50
2019-05-28T18:41:49.133Z,0.37
2019-05-28T18:44:16.837Z,0.50
2019-05-28T18:46:44.687Z,0.40
2019-05-28T18:49:11.888Z,0.40
2019-05-28T18:51:39.069Z,0.43
2019-05-28T18:54:05.659Z,0.33
2019-05-28T18:56:32.101Z,0.40
2019-05-28T18:58:58.757Z,0.40
2019-05-28T19:01:25.081Z,0.33
2019-05-28T19:03:54.006Z,0.30
2019-05-28T19:06:20.405Z,0.50
2019-05-28T19:08:46.812Z,0.40
2019-05-28T19:11:13.024Z,0.30
2019-05-28T19:13:39.299Z,0.37
2019-05-28T19:16:06.079Z,0.10
2019-05-28T19:18:32.430Z,0.37
2019-05-28T19:20:58.728Z,0.30
2019-05-28T19:23:25.038Z,0.40
2019-05-28T19:25:51.313Z,0.53
2019-05-28T19:28:17.835Z,0.23
2019-05-28T19:30:44.477Z,0.20
2019-05-28T19:33:10.990Z,0.37
2019-05-28T19:35:37.410Z,0.33
2019-05-28T19:38:03.945Z,0.50
2019-05-28T19:40:36.137Z,0.80
2019-05-28T19:43:03.326Z,0.80
2019-05-28T19:45:29.836Z,0.70
2019-05-28T19:47:56.088Z,0.40
2019-05-28T19:50:22.405Z,0.73
2019-05-28T19:52:48.876Z,0.60
2019-05-28T19:55:15.443Z,0.50
2019-05-28T19:57:41.704Z,0.20
2019-05-28T20:00:08.879Z,0.60
2019-05-28T20:02:35.905Z,0.60
2019-05-28T20:05:03.881Z,0.60
2019-05-28T20:07:30.113Z,0.40
2019-05-28T20:09:56.572Z,0.30
2019-05-28T20:12:22.748Z,0.47
2019-05-28T20:14:49.172Z,0.33
2019-05-28T20:17:15.430Z,0.60
2019-05-28T20:19:41.572Z,0.60
2019-05-28T20:22:07.752Z,0.30
2019-05-28T20:24:34.091Z,0.53
2019-05-28T20:27:00.605Z,0.50
2019-05-28T20:29:27.018Z,0.37
2019-05-28T20:31:53.289Z,0.30
2019-05-28T20:34:19.904Z,0.40
2019-05-28T20:36:46.420Z,0.30
2019-05-28T20:39:12.729Z,0.30
2019-05-28T20:41:39.307Z,0.30
2019-05-28T20:44:06.393Z,0.53
2019-05-28T20:46:32.736Z,0.40
2019-05-28T20:48:58.941Z,0.43
2019-05-28T20:51:26.519Z,0.50
2019-05-28T20:53:52.792Z,0.70
2019-05-28T20:56:19.145Z,0.63
2019-05-28T20:58:45.605Z,0.40
2019-05-28T21:01:11.951Z,0.60
2019-05-28T21:03:38.088Z,0.50
2019-05-28T21:06:04.336Z,0.50
2019-05-28T21:08:30.630Z,0.73
2019-05-28T21:10:56.797Z,0.30
2019-05-28T21:13:23.030Z,0.77
2019-05-28T21:15:50.591Z,0.47
2019-05-28T21:18:17.126Z,0.73
2019-05-28T21:20:43.679Z,0.37
2019-05-28T21:23:10.212Z,0.73
2019-05-28T21:25:36.711Z,0.63
2019-05-28T21:28:03.195Z,0.67
2019-05-28T21:30:29.660Z,0.50
2019-05-28T21:32:56.760Z,0.80
2019-05-28T21:35:23.779Z,0.70
2019-05-28T21:37:51.003Z,0.70
2019-05-28T21:40:18.072Z,0.50
2019-05-28T21:42:58.551Z,0.40
2019-05-28T21:45:15.015Z,0.40
2019-05-28T21:47:41.894Z,0.40
2019-05-28T21:50:10.364Z,0.33
2019-05-28T21:52:36.735Z,0.27
2019-05-28T21:55:08.356Z,0.40
2019-05-28T21:57:34.881Z,0.33
2019-05-28T22:00:02.340Z,0.20
2019-05-28T22:02:28.950Z,0.50
2019-05-28T22:04:55.327Z,0.30
2019-05-28T22:07:21.714Z,0.30
2019-05-28T22:09:47.890Z,0.30
2019-05-28T22:12:14.238Z,0.47
2019-05-28T22:14:40.714Z,0.30
2019-05-28T22:17:11.927Z,0.40
2019-05-28T22:19:35.786Z,0.40
2019-05-28T22:22:02.755Z,0.30
2019-05-28T22:24:29.318Z,0.60
2019-05-28T22:26:56.319Z,0.60
2019-05-28T22:29:22.620Z,0.50
2019-05-28T22:31:49.195Z,0.50
2019-05-28T22:34:15.346Z,0.30
2019-05-28T22:36:41.604Z,0.30
2019-05-28T22:39:09.118Z,0.60
2019-05-28T22:41:40.013Z,0.30
2019-05-28T22:44:07.884Z,0.40
2019-05-28T22:46:34.209Z,0.33
2019-05-28T22:49:01.183Z,0.30
2019-05-28T22:51:27.812Z,0.73
2019-05-28T22:53:54.270Z,0.40
2019-05-28T22:56:20.730Z,0.50
2019-05-28T22:58:46.944Z,0.23
2019-05-28T23:01:13.383Z,0.30
2019-05-28T23:03:47.744Z,0.50
2019-05-28T23:06:14.406Z,0.57
2019-05-28T23:08:40.880Z,0.30
2019-05-28T23:11:08.117Z,0.70
2019-05-28T23:13:46.433Z,0.50
2019-05-28T23:16:04.246Z,0.40
2019-05-28T23:18:30.753Z,0.60
2019-05-28T23:20:57.036Z,0.30
2019-05-28T23:23:23.370Z,0.50
2019-05-28T23:25:49.508Z,0.50
2019-05-28T23:28:17.483Z,0.50
2019-05-28T23:30:43.619Z,0.50
2019-05-28T23:33:12.324Z,0.40
2019-05-28T23:35:38.337Z,0.63
2019-05-28T23:38:04.919Z,0.40
2019-05-28T23:40:31.210Z,0.50
2019-05-28T23:42:57.689Z,0.30
2019-05-28T23:45:23.937Z,0.40
2019-05-28T23:47:50.103Z,0.30
2019-05-28T23:50:18.196Z,0.47
2019-05-28T23:52:44.407Z,0.40
2019-05-28T23:55:11.807Z,0.40
2019-05-28T23:57:38.260Z,0.33
